Flight Track Log - Related Links

Times and Time Zones

All times are in EDT time to prevent confusion due to time zone crossing. See the GJS6221 flight status page for this flight to view local times or setup timezone preferences in your user account.


Time Position Orientation Groundspeed Altitude Reporting Facility
EDT Latitude Longitude Course Direction KTS MPH feet Rate Location/Type
Wed 07:16:31 AM 45.4667 -73.7167 203° Southwest 80 92 700  Level Montreal Center
Wed 07:17:31 AM 45.5000 -73.6500 54° Northeast 190 219 3,200 2,650 Climbing Montreal Center
Wed 07:18:31 AM 45.4833 -73.5833 110° East 250 288 6,000 2,700 Climbing Montreal Center
Wed 07:19:31 AM 45.4000 -73.6000 188° South 290 334 8,600 2,750 Climbing Montreal Center
Wed 07:20:31 AM 45.3333 -73.6500 208° Southwest 310 357 11,500 2,800 Climbing Montreal Center
Wed 07:21:31 AM 45.2500 -73.7000 203° Southwest 330 380 14,200 2,800 Climbing Montreal Center
Wed 07:22:00 AM 44.8395 -74.0618 203° Southwest  Level FlightAware Approximate
Wed 07:22:31 AM 45.1667 -73.7833 215° Southwest 330 380 17,100  Level Montreal Center
Wed 07:23:31 AM 45.0833 -73.8500 209° Southwest 340 391 19,300 2,250 Climbing Montreal Center
Wed 07:24:31 AM 45.0000 -73.9000 203° Southwest 350 403 21,600 2,300 Climbing Montreal Center
Wed 07:25:31 AM 44.9000 -73.9833 211° Southwest 350 403 23,900 2,150 Climbing Montreal Center
Wed 07:26:31 AM 44.8167 -74.0500 210° Southwest 360 414 25,900 1,700 Climbing Montreal Center
Wed 07:27:31 AM 44.7167 -74.1333 211° Southwest 370 426 27,300 1,350 Climbing Montreal Center
Wed 07:28:31 AM 44.6167 -74.1333 180° South 400 460 28,600 1,200 Climbing Montreal Center
Wed 07:29:31 AM 44.5000 -74.0833 163° South 420 483 29,700 884 Climbing Montreal Center
Wed 07:30:06 AM 44.4722 -74.0983 201° Southwest 404 465 30,000 189 Climbing Boston Center
Wed 07:31:06 AM 44.3331 -74.0769 174° South 445 512 30,000  Level Boston Center
Wed 07:32:06 AM 44.2061 -74.0592 174° South 456 525 30,000  Level Boston Center
Wed 07:33:06 AM 44.0836 -74.0356 172° South 456 525 30,000  Level Boston Center
Wed 07:34:06 AM 43.9547 -74.0175 174° South 466 536 30,000  Level Boston Center
Wed 07:35:06 AM 43.8111 -73.9908 172° South 474 545 30,000  Level Boston Center
Wed 07:36:06 AM 43.6847 -73.9417 164° South 474 545 30,000  Level Boston Center
Wed 07:37:06 AM 43.5708 -73.8814 159° South 479 551 30,000 -200 Level Boston Center
Wed 07:38:06 AM 43.4447 -73.8100 158° South 484 557 29,600 -850 Descending Boston Center
Wed 07:39:06 AM 43.3081 -73.7356 158° South 484 557 28,300 -1,050 Descending Boston Center
Wed 07:40:06 AM 43.1978 -73.7161 173° South 457 526 27,500 -1,000 Descending Boston Center
Wed 07:41:06 AM 43.0578 -73.7472 189° South 466 536 26,300 -1,100 Descending Boston Center
Wed 07:42:06 AM 42.9325 -73.7700 188° South 466 536 25,300 -1,000 Descending Boston Center
Wed 07:43:06 AM 42.8069 -73.7956 188° South 466 536 24,300 -1,000 Descending Boston Center
Wed 07:44:06 AM 42.6819 -73.7900 178° South 461 531 23,300 -900 Descending Boston Center
Wed 07:45:06 AM 42.5697 -73.7708 173° South 461 531 22,500 -900 Descending Boston Center
Wed 07:46:06 AM 42.4469 -73.7483 172° South 453 521 21,500 -1,100 Descending Boston Center
Wed 07:47:06 AM 42.3244 -73.7206 170° South 453 521 20,300 -1,350 Descending Boston Center
Wed 07:48:06 AM 42.1953 -73.7181 179° South 426 490 18,800 -1,150 Descending Boston Center
Wed 07:49:06 AM 42.0950 -73.7272 184° South 413 475 18,000 -450 Descending Boston Center
Wed 07:50:06 AM 41.9719 -73.7386 184° South 402 463 17,900 -500 Descending Boston Center
Wed 07:51:06 AM 41.8614 -73.7503 184° South 402 463 17,000 -950 Descending Boston Center
Wed 07:52:06 AM 41.7550 -73.7619 185° South 396 456 16,000 -1,500 Descending Boston Center
Wed 07:53:06 AM 41.6486 -73.7708 184° South 391 450 14,000 -2,256 Descending Boston Center
Wed 07:54:11 AM 41.5333 -73.7833 185° South 354 407 11,300 -1,776 Descending New York TRACON
Wed 07:55:11 AM 41.4500 -73.7833 180° South 307 353 10,300 -1,000 Descending New York TRACON
Wed 07:56:11 AM 41.3667 -73.8000 189° South 300 345 9,300 -900 Descending New York TRACON
Wed 07:57:11 AM 41.3000 -73.7500 151° Southeast 298 343 8,500 -900 Descending New York TRACON
Wed 07:58:11 AM 41.2167 -73.7000 156° South 301 346 7,500 -1,000 Descending New York TRACON
Wed 07:59:11 AM 41.1500 -73.6333 143° Southeast 307 353 6,500 -1,050 Descending New York TRACON
Wed 08:00:11 AM 41.0667 -73.6167 171° South 299 344 5,400 -1,050 Descending New York TRACON
Wed 08:01:11 AM 41.0000 -73.6000 169° South 286 329 4,400 -700 Descending New York TRACON
Wed 08:02:11 AM 40.9167 -73.6333 197° South 282 325 4,000 -550 Descending New York TRACON
Wed 08:03:11 AM 40.8500 -73.6833 210° Southwest 276 318 3,300 -600 Descending New York TRACON
Wed 08:04:11 AM 40.8000 -73.7000 194° South 216 249 2,800 -550 Descending New York TRACON
Wed 08:05:11 AM 40.7333 -73.7167 191° South 190 219 2,200 -350 Descending New York TRACON
Wed 08:06:11 AM 40.7167 -73.7667 246° West 176 203 2,100 -300 Descending New York TRACON
Wed 08:07:11 AM 40.7167 -73.8167 270° West 145 167 1,600 -700 Descending New York TRACON
Wed 08:08:11 AM 40.7500 -73.8333 339° North 122 140 700 -900 Descending New York TRACON
Wed 08:10:00 AM 40.7667 -73.8667 180° South  Level FlightAware Approximate

Login

Don't have an account? Register now (free) for customized features, flight alerts, and more!